Time;durP1;ratioP1;P1;durP2;ratioP2;P2;SDS_P1;SDS_P2;PMS_P1;PMS_P2;Temp;Humidity;BMP_temperature;BMP_pressure;BME280_temperature;BME280_humidity;BME280_pressure;Samples;Min_cycle;Max_cycle;Signal;HPM_P1;HPM_P2
2024/02/24 00:02:50;;;;;;;4.55;1.17;;;;;;;4.77;75.23;98437.88;10242652;28;20047;-77
2024/02/24 00:07:54;;;;;;;8.35;1.35;;;;;;;4.84;75.02;98439.00;10235327;28;20054;-78
2024/02/24 00:12:57;;;;;;;5.97;1.52;;;;;;;4.77;75.88;98432.56;10208323;28;20042;-78
2024/02/24 00:18:00;;;;;;;4.47;1.10;;;;;;;4.59;77.08;98437.66;10234758;28;20059;-77
2024/02/24 00:23:05;;;;;;;6.35;1.67;;;;;;;4.90;75.65;98442.09;10227359;28;20055;-77
2024/02/24 00:28:09;;;;;;;6.22;1.90;;;;;;;4.92;75.79;98438.31;10228290;28;20126;-77
2024/02/24 00:33:12;;;;;;;2.05;1.27;;;;;;;4.82;76.22;98451.56;10232149;28;20062;-77
2024/02/24 00:38:16;;;;;;;8.13;2.20;;;;;;;4.95;75.90;98440.72;10232821;28;20051;-77
2024/02/24 00:43:19;;;;;;;5.53;1.65;;;;;;;5.08;75.20;98434.34;10231592;28;20058;-77
2024/02/24 00:48:22;;;;;;;4.47;1.83;;;;;;;5.09;75.14;98428.03;10222908;28;20074;-77
2024/02/24 00:53:28;;;;;;;5.88;1.27;;;;;;;5.05;75.39;98440.78;10235097;28;20548;-77
2024/02/24 00:58:31;;;;;;;5.10;1.40;;;;;;;4.92;75.95;98430.34;10234338;28;20145;-77
2024/02/24 01:03:33;;;;;;;4.20;2.00;;;;;;;4.95;75.62;98427.41;10238231;28;20055;-77
2024/02/24 01:08:38;;;;;;;3.53;1.50;;;;;;;4.84;76.36;98420.38;10231044;28;20061;-77
2024/02/24 01:13:41;;;;;;;4.68;1.48;;;;;;;4.88;76.78;98425.41;10212963;28;20070;-77
2024/02/24 01:18:44;;;;;;;4.57;1.38;;;;;;;4.79;77.15;98429.72;10225296;28;20047;-77
2024/02/24 01:23:49;;;;;;;3.28;1.20;;;;;;;4.81;77.25;98438.44;10230419;28;20137;-77
2024/02/24 01:28:52;;;;;;;4.57;1.13;;;;;;;4.86;77.62;98441.53;10237111;28;20125;-77
2024/02/24 01:33:55;;;;;;;5.47;1.52;;;;;;;4.83;78.09;98432.00;10237307;28;20055;-77
2024/02/24 01:39:00;;;;;;;3.92;1.90;;;;;;;4.74;78.66;98426.63;10221009;28;20112;-77
2024/02/24 01:44:02;;;;;;;5.25;1.77;;;;;;;4.59;79.51;98418.19;10238016;28;20062;-77
2024/02/24 01:49:05;;;;;;;2.72;1.70;;;;;;;4.45;80.83;98424.72;10230644;28;20306;-77
2024/02/24 01:54:10;;;;;;;5.82;1.95;;;;;;;4.42;81.21;98430.31;10232392;28;20059;-77
2024/02/24 01:59:13;;;;;;;3.78;1.88;;;;;;;4.34;82.24;98432.78;10226004;28;20047;-77
2024/02/24 02:04:16;;;;;;;5.63;2.10;;;;;;;4.23;82.98;98430.22;10233669;28;20102;-77
2024/02/24 02:09:22;;;;;;;5.53;1.98;;;;;;;4.22;83.74;98433.81;10237806;28;20170;-77
2024/02/24 02:14:25;;;;;;;5.40;2.25;;;;;;;4.21;84.02;98443.63;10235932;28;20101;-77
2024/02/24 02:19:28;;;;;;;7.65;2.25;;;;;;;4.28;84.06;98449.22;10228093;28;21268;-77
2024/02/24 02:24:32;;;;;;;6.18;2.45;;;;;;;4.29;84.30;98451.78;10231107;28;20698;-77
2024/02/24 02:29:35;;;;;;;4.82;2.10;;;;;;;4.31;84.39;98449.84;10215614;28;20058;-77
2024/02/24 02:34:38;;;;;;;4.18;2.15;;;;;;;4.34;84.06;98448.72;10233048;28;20050;-76
2024/02/24 02:39:43;;;;;;;5.18;2.03;;;;;;;4.26;84.17;98456.53;10227798;28;20051;-76
2024/02/24 02:44:46;;;;;;;6.43;1.85;;;;;;;4.25;84.57;98461.00;10230089;28;20054;-77
2024/02/24 02:49:49;;;;;;;8.07;2.25;;;;;;;4.22;84.70;98465.72;10233925;28;20059;-77
2024/02/24 02:54:53;;;;;;;10.63;1.85;;;;;;;4.18;84.83;98458.00;10272939;28;20066;-77
2024/02/24 02:59:56;;;;;;;6.35;1.90;;;;;;;4.21;84.86;98456.06;10227288;28;20683;-77
2024/02/24 03:04:59;;;;;;;9.57;3.05;;;;;;;4.22;84.76;98463.06;10231684;28;20050;-77
2024/02/24 03:10:04;;;;;;;5.35;2.67;;;;;;;4.10;85.26;98462.28;10225304;28;20051;-77
2024/02/24 03:15:08;;;;;;;7.03;3.03;;;;;;;4.11;85.07;98467.50;10236632;28;20047;-77
2024/02/24 03:20:12;;;;;;;5.57;2.78;;;;;;;4.02;85.65;98464.75;10241216;28;20073;-77
2024/02/24 03:25:16;;;;;;;6.18;3.00;;;;;;;4.04;85.42;98468.13;10208299;28;20692;-77
2024/02/24 03:30:19;;;;;;;6.88;2.53;;;;;;;4.08;85.09;98475.69;10212798;28;20063;-77
2024/02/24 03:35:22;;;;;;;4.80;2.33;;;;;;;4.08;84.63;98481.00;10228882;28;20056;-77
2024/02/24 03:40:27;;;;;;;4.43;2.70;;;;;;;4.15;84.37;98482.19;10219096;28;20947;-77
2024/02/24 03:45:32;;;;;;;8.50;2.78;;;;;;;4.21;83.60;98469.34;10223628;28;20054;-77
2024/02/24 03:50:34;;;;;;;4.55;2.50;;;;;;;4.16;83.45;98481.19;10225524;28;20058;-77
2024/02/24 03:55:39;;;;;;;7.45;2.85;;;;;;;4.15;83.44;98486.66;10237471;28;20474;-77
2024/02/24 04:00:42;;;;;;;7.45;3.20;;;;;;;4.05;83.98;98491.91;10224859;28;20050;-77
2024/02/24 04:05:46;;;;;;;5.78;2.78;;;;;;;4.07;84.27;98499.75;10229340;28;20066;-77
2024/02/24 04:10:51;;;;;;;6.00;2.95;;;;;;;3.98;84.44;98501.38;10221296;28;20055;-77
2024/02/24 04:15:54;;;;;;;5.70;2.58;;;;;;;3.98;84.56;98508.47;10248688;28;20138;-77
2024/02/24 04:20:57;;;;;;;6.45;3.20;;;;;;;3.92;84.73;98510.69;10229558;28;20047;-77
2024/02/24 04:26:01;;;;;;;12.02;2.97;;;;;;;3.86;85.41;98516.50;10223777;28;20043;-77
2024/02/24 04:31:04;;;;;;;12.48;3.90;;;;;;;3.91;85.45;98524.09;10239089;28;20050;-77
2024/02/24 04:36:08;;;;;;;8.95;3.47;;;;;;;3.96;85.37;98519.25;10222522;28;20047;-77
2024/02/24 04:41:12;;;;;;;6.75;2.60;;;;;;;3.93;85.38;98533.63;10234988;28;20043;-77
2024/02/24 04:46:15;;;;;;;6.32;2.60;;;;;;;3.99;85.39;98537.56;10234206;28;20136;-77
2024/02/24 04:51:20;;;;;;;9.55;2.70;;;;;;;4.06;85.38;98541.44;10222826;28;20054;-77
2024/02/24 04:56:25;;;;;;;8.70;3.08;;;;;;;4.10;85.11;98537.53;10228323;28;20081;-77
2024/02/24 05:01:28;;;;;;;7.65;3.00;;;;;;;4.11;85.07;98533.03;10230587;28;20066;-77
2024/02/24 05:06:31;;;;;;;8.10;2.75;;;;;;;4.09;85.12;98543.81;10221021;28;20050;-77
2024/02/24 05:11:36;;;;;;;8.75;2.25;;;;;;;4.10;85.38;98545.50;10194154;29;20054;-77
2024/02/24 05:16:40;;;;;;;6.30;2.83;;;;;;;4.02;85.71;98552.41;10215619;28;20080;-77
2024/02/24 05:21:44;;;;;;;8.15;3.35;;;;;;;4.00;85.92;98547.22;10236498;28;20089;-77
2024/02/24 05:26:48;;;;;;;9.68;2.90;;;;;;;3.92;86.63;98557.63;10242423;28;20051;-77
2024/02/24 05:31:51;;;;;;;10.48;2.50;;;;;;;3.92;86.67;98558.50;10230910;28;20514;-77
2024/02/24 05:36:55;;;;;;;13.57;3.05;;;;;;;3.95;86.56;98555.59;10211888;28;20089;-76
2024/02/24 05:41:59;;;;;;;9.27;3.00;;;;;;;3.86;86.86;98555.50;10226303;28;20053;-77
2024/02/24 05:47:03;;;;;;;8.15;2.67;;;;;;;3.87;87.17;98562.50;10210516;28;20051;-77
2024/02/24 05:52:06;;;;;;;9.13;3.05;;;;;;;3.77;87.79;98574.84;10229824;28;20114;-77
2024/02/24 05:57:11;;;;;;;7.32;2.90;;;;;;;3.83;87.68;98569.88;10229028;28;20666;-77
2024/02/24 06:02:14;;;;;;;7.63;2.92;;;;;;;3.91;87.12;98583.38;10225035;28;20062;-77
2024/02/24 06:07:17;;;;;;;5.22;3.22;;;;;;;3.83;87.76;98585.81;10233102;28;20055;-77
2024/02/24 06:12:21;;;;;;;5.70;2.75;;;;;;;3.79;87.82;98591.50;10230611;28;20047;-77
2024/02/24 06:17:25;;;;;;;8.07;3.72;;;;;;;3.73;88.33;98593.69;10226914;28;20058;-77
2024/02/24 06:22:29;;;;;;;6.03;3.28;;;;;;;3.79;88.30;98597.66;10213194;29;20187;-77
2024/02/24 06:27:33;;;;;;;6.28;3.55;;;;;;;3.83;88.05;98614.19;10229625;28;20506;-77
2024/02/24 06:32:36;;;;;;;8.18;3.40;;;;;;;3.90;87.70;98618.03;10221096;28;20047;-77
2024/02/24 06:37:39;;;;;;;9.32;3.67;;;;;;;3.98;87.51;98630.69;10229758;28;20062;-77
2024/02/24 06:42:44;;;;;;;7.70;3.00;;;;;;;4.05;86.57;98634.53;10230890;28;20047;-77
2024/02/24 06:47:47;;;;;;;7.45;3.85;;;;;;;4.18;86.26;98627.25;10224881;28;20093;-77
2024/02/24 06:52:50;;;;;;;8.98;3.40;;;;;;;4.20;85.97;98627.09;10246313;28;20051;-77
2024/02/24 06:57:54;;;;;;;9.70;3.35;;;;;;;4.25;85.85;98643.50;10213799;28;20046;-77
2024/02/24 07:02:57;;;;;;;12.07;4.07;;;;;;;4.31;85.63;98638.56;10230177;28;20086;-77
2024/02/24 07:08:00;;;;;;;10.25;3.55;;;;;;;4.35;85.58;98641.78;10231939;28;20043;-77
2024/02/24 07:13:04;;;;;;;7.93;3.50;;;;;;;4.41;85.57;98654.56;10227696;28;20449;-77
2024/02/24 07:18:07;;;;;;;4.80;3.67;;;;;;;4.40;85.73;98658.22;10231333;28;20053;-77
2024/02/24 07:23:11;;;;;;;5.28;1.20;;;;;;;4.55;88.36;98664.91;10237648;28;20612;-77
2024/02/24 07:28:15;;;;;;;14.85;5.63;;;;;;;5.03;87.17;98664.44;10223381;28;20047;-77
2024/02/24 07:33:18;;;;;;;8.77;3.38;;;;;;;5.28;84.56;98676.47;10220197;28;20055;-77
2024/02/24 07:38:21;;;;;;;7.68;3.13;;;;;;;5.44;82.53;98676.00;10212116;28;20047;-77
2024/02/24 07:43:25;;;;;;;4.50;2.58;;;;;;;5.51;81.03;98684.28;10231982;28;20062;-77
2024/02/24 07:48:28;;;;;;;9.55;2.67;;;;;;;5.77;80.66;98698.00;10230381;28;20627;-78
2024/02/24 07:53:31;;;;;;;4.15;2.28;;;;;;;5.94;78.71;98692.00;10232622;28;20101;-78
2024/02/24 07:58:36;;;;;;;4.30;2.40;;;;;;;5.78;76.86;98698.84;10235388;28;20454;-78
2024/02/24 08:03:39;;;;;;;6.78;2.88;;;;;;;5.79;76.85;98693.38;10226132;28;20058;-78
2024/02/24 08:08:42;;;;;;;5.82;3.08;;;;;;;6.01;76.71;98704.81;10235523;28;20062;-77
2024/02/24 08:13:47;;;;;;;5.95;2.60;;;;;;;6.22;75.24;98702.03;10242128;28;20046;-78
2024/02/24 08:18:50;;;;;;;5.47;2.53;;;;;;;6.49;73.30;98707.56;10215351;28;20054;-78
2024/02/24 08:23:53;;;;;;;6.68;2.45;;;;;;;6.40;73.55;98711.91;10236483;28;20049;-77
2024/02/24 08:28:58;;;;;;;3.42;1.98;;;;;;;6.22;73.67;98721.53;10208648;28;20065;-78
2024/02/24 08:34:01;;;;;;;4.57;3.15;;;;;;;6.29;73.38;98717.38;10235063;28;20670;-79
2024/02/24 08:39:05;;;;;;;3.03;1.58;;;;;;;6.36;72.68;98728.31;10233558;28;20055;-78
2024/02/24 08:44:09;;;;;;;4.78;1.80;;;;;;;6.05;72.20;98730.22;10229818;28;20059;-79
2024/02/24 08:49:12;;;;;;;2.13;1.48;;;;;;;5.95;72.93;98728.38;10224727;28;20627;-79
2024/02/24 08:54:20;;;;;;;6.03;3.58;;;;;;;6.06;75.68;98732.75;10228318;28;20047;-78
2024/02/24 08:59:25;;;;;;;5.55;2.63;;;;;;;6.23;73.41;98725.91;10217986;28;20050;-78
2024/02/24 09:04:28;;;;;;;4.72;2.20;;;;;;;6.09;72.73;98723.66;10219413;28;21177;-78
2024/02/24 09:09:31;;;;;;;2.08;1.42;;;;;;;6.78;71.21;98728.94;10242039;28;20060;-78
2024/02/24 09:14:35;;;;;;;2.22;1.10;;;;;;;7.20;68.31;98731.31;10240606;28;20055;-78
2024/02/24 09:19:38;;;;;;;4.03;1.15;;;;;;;6.77;68.70;98740.56;10231200;28;20142;-78
2024/02/24 09:24:41;;;;;;;2.97;1.00;;;;;;;6.81;68.84;98757.16;10244875;28;20059;-79
2024/02/24 09:29:46;;;;;;;2.88;1.30;;;;;;;6.76;67.96;98738.06;10246152;28;20055;-79
2024/02/24 09:34:49;;;;;;;2.60;2.10;;;;;;;6.68;68.11;98738.75;10241137;28;20151;-78
2024/02/24 09:39:52;;;;;;;3.60;2.15;;;;;;;7.26;67.20;98741.41;10223811;28;20467;-79
2024/02/24 09:44:59;;;;;;;3.47;1.52;;;;;;;7.77;64.15;98758.03;10232033;28;20051;-78
2024/02/24 09:50:02;;;;;;;3.22;1.13;;;;;;;7.85;62.92;98751.97;10263042;28;20057;-79
2024/02/24 09:55:06;;;;;;;2.30;1.08;;;;;;;7.84;63.21;98751.09;10236672;28;20050;-79
2024/02/24 10:00:11;;;;;;;3.45;1.55;;;;;;;8.28;62.15;98761.16;10267655;28;20070;-79
2024/02/24 10:05:17;;;;;;;2.08;1.13;;;;;;;8.49;61.22;98756.44;10246968;28;20713;-78
2024/02/24 10:10:20;;;;;;;2.63;1.50;;;;;;;8.29;61.56;98762.88;10254634;28;20075;-79
2024/02/24 10:15:25;;;;;;;1.73;0.80;;;;;;;7.77;61.90;98773.22;10223445;28;20050;-79
2024/02/24 10:20:28;;;;;;;3.88;0.90;;;;;;;7.92;61.72;98775.25;10248360;28;20043;-79
2024/02/24 10:25:31;;;;;;;1.60;0.80;;;;;;;7.53;64.48;98781.72;10233687;28;20070;-79
2024/02/24 10:30:35;;;;;;;2.20;0.70;;;;;;;7.78;61.44;98802.47;10232523;28;20055;-79
2024/02/24 10:35:38;;;;;;;1.17;0.60;;;;;;;7.05;62.86;98799.50;10215987;28;20051;-79
2024/02/24 10:40:43;;;;;;;1.98;0.70;;;;;;;7.00;63.40;98791.91;10228591;28;20051;-79
2024/02/24 10:45:47;;;;;;;1.95;0.63;;;;;;;6.92;65.49;98793.59;10228088;28;20066;-79
2024/02/24 10:50:50;;;;;;;0.57;0.50;;;;;;;7.06;64.99;98795.81;10246878;28;20042;-78
2024/02/24 10:55:55;;;;;;;1.40;0.10;;;;;;;6.44;67.25;98810.31;10242159;28;20137;-79
2024/02/24 11:00:59;;;;;;;2.05;0.52;;;;;;;6.42;71.41;98825.59;10240776;28;20611;-79
2024/02/24 11:06:03;;;;;;;0.68;0.60;;;;;;;6.29;77.07;98831.19;10243801;28;20061;-78
2024/02/24 11:11:09;;;;;;;1.35;0.60;;;;;;;5.58;83.43;98842.59;10253524;28;20052;-79
2024/02/24 11:16:14;;;;;;;1.38;0.20;;;;;;;5.26;87.67;98851.47;10250457;28;20891;-78
2024/02/24 11:21:17;;;;;;;0.32;0.30;;;;;;;4.72;98.15;98862.16;10248449;28;20051;-78
2024/02/24 11:26:33;;;;;;;0.95;0.20;;;;;;;4.52;100.00;98866.41;10242499;28;20045;-79
2024/02/24 11:31:45;;;;;;;1.58;0.30;;;;;;;4.57;100.00;98857.06;10225216;28;20593;-78
2024/02/24 11:36:49;;;;;;;1.30;0.50;;;;;;;4.45;100.00;98852.75;10244076;28;20560;-79
2024/02/24 11:41:54;;;;;;;0.77;0.30;;;;;;;4.72;100.00;98854.19;10251612;28;20051;-78
2024/02/24 11:46:59;;;;;;;0.88;0.50;;;;;;;5.16;100.00;98841.72;10242576;28;20047;-77
2024/02/24 11:52:02;;;;;;;0.73;0.47;;;;;;;5.58;100.00;98850.59;10239064;28;20055;-79
2024/02/24 11:57:05;;;;;;;0.43;0.43;;;;;;;5.31;100.00;98848.41;10243440;28;20109;-78
2024/02/24 12:02:10;;;;;;;2.63;0.57;;;;;;;4.76;100.00;98861.75;10263820;28;20057;-78
2024/02/24 12:07:13;;;;;;;1.02;0.52;;;;;;;3.99;100.00;98864.34;10237312;28;20054;-78
2024/02/24 12:12:17;;;;;;;0.65;0.45;;;;;;;4.10;100.00;98856.38;10251993;28;20059;-76
2024/02/24 12:17:22;;;;;;;0.70;0.60;;;;;;;4.24;100.00;98862.44;10242722;28;20062;-78
2024/02/24 12:22:25;;;;;;;1.67;0.90;;;;;;;4.53;100.00;98862.78;10222376;28;21693;-78
2024/02/24 12:27:28;;;;;;;1.35;1.10;;;;;;;4.98;100.00;98860.03;10220083;28;20055;-78
2024/02/24 12:32:35;;;;;;;1.02;0.70;;;;;;;6.05;100.00;98863.50;10244281;28;20522;-78
2024/02/24 12:37:38;;;;;;;2.47;0.88;;;;;;;5.79;100.00;98863.91;10248320;28;20059;-78
2024/02/24 12:42:41;;;;;;;1.02;0.85;;;;;;;5.75;100.00;98866.97;10237624;28;20054;-78
2024/02/24 12:47:49;;;;;;;2.60;1.00;;;;;;;5.78;100.00;98869.34;10255718;28;21192;-78
2024/02/24 12:52:53;;;;;;;1.02;0.90;;;;;;;6.06;100.00;98868.69;10257783;28;20059;-78
2024/02/24 12:57:56;;;;;;;1.02;0.95;;;;;;;5.62;100.00;98864.47;10232789;28;20062;-78
2024/02/24 13:03:01;;;;;;;1.83;1.63;;;;;;;6.02;100.00;98877.91;10256439;28;20051;-78
2024/02/24 13:08:05;;;;;;;2.83;1.40;;;;;;;5.46;100.00;98905.75;10251177;28;20050;-78
2024/02/24 13:13:08;;;;;;;3.35;1.65;;;;;;;4.91;95.62;98912.03;10239033;28;20051;-78
2024/02/24 13:18:12;;;;;;;1.13;1.02;;;;;;;4.40;94.91;98916.09;10236254;28;20063;-78
2024/02/24 13:23:16;;;;;;;2.05;1.27;;;;;;;5.34;93.50;98903.25;10246185;28;20050;-78
2024/02/24 13:28:20;;;;;;;1.90;1.27;;;;;;;5.14;88.85;98911.06;10266805;28;20057;-79
2024/02/24 13:33:24;;;;;;;1.25;1.15;;;;;;;7.67;81.67;98912.22;10231384;29;20053;-79
2024/02/24 13:38:28;;;;;;;2.13;1.27;;;;;;;9.60;66.30;98903.47;10232237;28;20051;-80
2024/02/24 13:43:31;;;;;;;0.88;0.75;;;;;;;8.72;67.68;98908.56;10244754;28;20051;-80
2024/02/24 13:48:35;;;;;;;1.45;1.15;;;;;;;9.19;67.52;98916.50;10231214;28;20062;-80
2024/02/24 13:53:38;;;;;;;0.80;0.80;;;;;;;7.12;70.86;98927.94;10265124;28;20066;-79
2024/02/24 13:58:41;;;;;;;1.00;0.90;;;;;;;7.39;68.68;98944.13;10274776;28;20051;-79
2024/02/24 14:03:46;;;;;;;1.38;0.70;;;;;;;6.74;71.29;98932.13;10269961;28;20063;-79
2024/02/24 14:08:49;;;;;;;2.70;1.10;;;;;;;7.06;68.93;98942.66;10248265;28;21280;-79
2024/02/24 14:13:53;;;;;;;1.83;0.88;;;;;;;6.76;69.84;98943.53;10206194;29;20053;-79
2024/02/24 14:18:57;;;;;;;1.67;1.10;;;;;;;6.20;71.38;98975.94;10218926;28;20157;-79
2024/02/24 14:24:03;;;;;;;1.48;0.93;;;;;;;6.07;77.34;98955.69;10242044;28;20055;-78
2024/02/24 14:29:06;;;;;;;0.82;0.70;;;;;;;7.71;67.11;98933.19;10232808;28;20046;-79
2024/02/24 14:34:10;;;;;;;0.77;0.77;;;;;;;7.72;65.58;98932.19;10223971;28;20055;-79
2024/02/24 14:39:14;;;;;;;1.00;0.65;;;;;;;8.84;63.64;98952.91;10231223;28;20663;-79
2024/02/24 14:44:17;;;;;;;1.42;0.55;;;;;;;8.80;59.66;98955.06;10230471;28;20039;-79
2024/02/24 14:49:21;;;;;;;1.02;0.60;;;;;;;8.70;60.20;98948.06;10225153;28;20155;-79
2024/02/24 14:54:24;;;;;;;0.47;0.43;;;;;;;9.34;57.20;98959.69;10212086;28;20051;-79
2024/02/24 14:59:27;;;;;;;0.52;0.45;;;;;;;8.75;58.13;98961.81;10214525;28;20379;-79
2024/02/24 15:04:31;;;;;;;1.40;0.57;;;;;;;9.84;55.62;98964.53;10212795;29;20072;-79
2024/02/24 15:09:34;;;;;;;0.43;0.43;;;;;;;9.08;55.06;98989.00;10199827;28;20142;-79
2024/02/24 15:14:37;;;;;;;2.47;0.50;;;;;;;8.51;56.43;98981.94;10227674;28;20043;-79
2024/02/24 15:19:45;;;;;;;2.00;0.43;;;;;;;9.02;54.50;98983.28;10229163;28;20059;-79
2024/02/24 15:24:48;;;;;;;0.60;0.60;;;;;;;7.86;58.04;98983.53;10232473;28;20051;-80
2024/02/24 15:29:51;;;;;;;0.77;0.50;;;;;;;7.27;60.63;98988.81;10233579;28;20053;-79
2024/02/24 15:34:55;;;;;;;0.35;0.35;;;;;;;7.01;61.78;98993.81;10221993;28;20810;-79
2024/02/24 15:39:59;;;;;;;0.60;0.50;;;;;;;7.16;62.82;99001.44;10226712;28;20125;-79
2024/02/24 15:45:02;;;;;;;1.15;0.85;;;;;;;7.30;63.26;98990.38;10230375;28;20057;-79
2024/02/24 15:50:07;;;;;;;0.60;0.60;;;;;;;7.59;62.87;98990.41;10234783;28;20086;-79
2024/02/24 15:55:11;;;;;;;0.60;0.60;;;;;;;8.03;62.15;98992.66;10236670;28;20767;-79
2024/02/24 16:00:14;;;;;;;2.22;1.52;;;;;;;8.07;61.77;99000.28;10244464;28;20066;-80
2024/02/24 16:05:21;;;;;;;1.77;1.08;;;;;;;7.63;63.26;99001.69;10245361;28;20074;-78
2024/02/24 16:10:24;;;;;;;2.88;1.55;;;;;;;7.27;64.96;99010.19;10233962;28;20047;-80
2024/02/24 16:15:27;;;;;;;1.33;1.00;;;;;;;7.08;65.93;99006.63;10247713;28;20065;-79
2024/02/24 16:20:32;;;;;;;1.40;0.98;;;;;;;6.95;66.58;99020.22;10238599;28;20048;-79
2024/02/24 16:25:35;;;;;;;0.82;0.50;;;;;;;6.42;69.01;99045.19;10197969;28;20411;-79
2024/02/24 16:30:38;;;;;;;1.48;0.63;;;;;;;6.13;70.90;99048.47;10214626;29;20055;-79
2024/02/24 16:35:42;;;;;;;2.33;0.60;;;;;;;5.97;72.65;99041.88;10201948;28;20059;-79
2024/02/24 16:40:47;;;;;;;1.42;0.40;;;;;;;5.84;72.60;99050.03;10216710;28;20677;-79
2024/02/24 16:45:50;;;;;;;0.60;0.43;;;;;;;5.83;72.36;99059.84;10233499;28;20078;-78
2024/02/24 16:50:54;;;;;;;0.57;0.57;;;;;;;5.84;72.32;99071.34;10232778;28;20046;-79
2024/02/24 16:55:57;;;;;;;3.17;0.75;;;;;;;5.78;72.66;99063.88;10228980;28;20047;-78
2024/02/24 17:01:00;;;;;;;1.00;0.73;;;;;;;5.72;72.85;99060.72;10238482;28;20055;-78
2024/02/24 17:06:05;;;;;;;0.75;0.70;;;;;;;5.70;72.76;99065.38;10241776;28;20043;-79
2024/02/24 17:11:08;;;;;;;1.48;0.80;;;;;;;5.63;73.08;99063.31;10228568;28;20180;-79
2024/02/24 17:16:11;;;;;;;2.05;1.08;;;;;;;5.63;72.85;99068.66;10238535;28;20510;-79
2024/02/24 17:21:16;;;;;;;2.83;1.00;;;;;;;5.63;71.20;99084.63;10237671;28;20422;-78
2024/02/24 17:26:19;;;;;;;1.15;0.85;;;;;;;5.63;74.17;99090.81;10249466;28;21361;-78
2024/02/24 17:31:22;;;;;;;4.15;2.30;;;;;;;5.11;75.15;99099.44;10240333;28;20130;-79
2024/02/24 17:36:27;;;;;;;3.85;2.67;;;;;;;5.24;75.80;99100.19;10251019;28;20050;-78
2024/02/24 17:41:30;;;;;;;4.05;1.88;;;;;;;5.43;75.96;99105.72;10234853;28;20047;-78
2024/02/24 17:46:33;;;;;;;8.05;4.00;;;;;;;5.70;74.07;99120.44;10227961;28;20446;-78
2024/02/24 17:51:42;;;;;;;3.75;2.05;;;;;;;5.82;73.58;99118.63;10219595;28;20089;-78
2024/02/24 17:56:45;;;;;;;1.75;1.13;;;;;;;5.85;72.51;99135.19;10243000;28;20043;-78
2024/02/24 18:01:49;;;;;;;2.83;1.38;;;;;;;5.70;73.67;99153.28;10213425;28;20073;-78
2024/02/24 18:06:53;;;;;;;0.80;0.80;;;;;;;2.88;100.00;99229.06;10244472;28;20163;-78
2024/02/24 18:11:56;;;;;;;0.40;0.40;;;;;;;1.99;100.00;99229.56;10224352;28;20061;-78
2024/02/24 18:16:59;;;;;;;1.13;0.40;;;;;;;2.06;100.00;99213.19;10234120;28;20442;-77
2024/02/24 18:22:04;;;;;;;0.40;0.40;;;;;;;1.88;100.00;99219.66;10239261;28;20526;-77
2024/02/24 18:27:07;;;;;;;3.35;1.02;;;;;;;2.52;100.00;99202.22;10235742;28;20043;-77
2024/02/24 18:32:10;;;;;;;1.92;0.98;;;;;;;2.77;100.00;99206.78;10218364;28;20663;-77
2024/02/24 18:37:15;;;;;;;2.70;1.23;;;;;;;3.08;100.00;99212.66;10236506;28;21345;-76
2024/02/24 18:42:22;;;;;;;1.98;1.00;;;;;;;3.20;100.00;99208.28;10238936;28;20511;-78
2024/02/24 18:47:25;;;;;;;3.28;1.10;;;;;;;3.22;100.00;99201.06;10224196;28;20055;-78
2024/02/24 18:52:29;;;;;;;1.42;1.08;;;;;;;3.31;100.00;99203.09;10225275;28;20050;-77
2024/02/24 18:57:32;;;;;;;1.98;1.30;;;;;;;3.40;100.00;99201.59;10221617;28;20059;-78
2024/02/24 19:02:38;;;;;;;2.30;2.10;;;;;;;3.56;100.00;99194.25;10230320;28;20059;-77
2024/02/24 19:07:49;;;;;;;4.00;2.33;;;;;;;3.59;100.00;99199.31;10240812;28;20081;-77
2024/02/24 19:12:53;;;;;;;13.85;5.97;;;;;;;3.67;100.00;99196.97;10249602;28;20055;-77
2024/02/24 19:17:56;;;;;;;17.42;9.27;;;;;;;3.71;100.00;99203.78;10250983;28;20050;-76
2024/02/24 19:23:00;;;;;;;9.30;6.22;;;;;;;3.64;100.00;99215.78;10244586;28;20058;-76
2024/02/24 19:28:04;;;;;;;3.92;3.50;;;;;;;3.66;100.00;99210.38;10223292;28;20066;-77
2024/02/24 19:33:10;;;;;;;3.58;2.65;;;;;;;3.71;100.00;99221.53;10233230;28;20074;-76
2024/02/24 19:38:16;;;;;;;3.25;2.63;;;;;;;3.75;100.00;99225.66;10236010;28;20043;-76
2024/02/24 19:43:19;;;;;;;2.60;2.22;;;;;;;3.77;100.00;99225.56;10260332;28;20057;-77
2024/02/24 19:48:22;;;;;;;3.22;1.90;;;;;;;3.71;100.00;99219.72;10244736;28;20050;-77
2024/02/24 19:53:26;;;;;;;2.03;1.80;;;;;;;3.63;100.00;99222.06;10241319;28;20592;-77
2024/02/24 19:58:29;;;;;;;3.63;2.10;;;;;;;3.73;100.00;99223.13;10228438;28;20113;-77
2024/02/24 20:03:41;;;;;;;4.80;2.17;;;;;;;3.76;100.00;99230.03;10235229;28;20078;-78
2024/02/24 20:08:47;;;;;;;3.60;2.50;;;;;;;3.94;100.00;99225.19;10242254;28;20055;-77
2024/02/24 20:13:50;;;;;;;4.30;2.42;;;;;;;4.01;100.00;99228.28;10251768;28;20059;-77
2024/02/24 20:18:53;;;;;;;5.40;1.90;;;;;;;4.07;100.00;99233.13;10243275;28;20054;-77
2024/02/24 20:23:57;;;;;;;2.58;1.27;;;;;;;3.95;100.00;99225.09;10234801;28;20047;-78
2024/02/24 20:29:01;;;;;;;3.13;1.17;;;;;;;4.14;96.91;99237.91;10231924;28;20058;-78
2024/02/24 20:34:04;;;;;;;1.98;1.10;;;;;;;4.10;92.40;99231.09;10223194;28;20055;-78
2024/02/24 20:39:13;;;;;;;1.48;0.90;;;;;;;4.14;90.75;99232.59;10246808;28;20057;-78
2024/02/24 20:44:17;;;;;;;1.75;1.13;;;;;;;4.24;90.00;99230.09;10249681;28;20205;-78
2024/02/24 20:49:21;;;;;;;1.75;0.80;;;;;;;4.01;87.72;99239.75;10235110;28;20051;-78
2024/02/24 20:54:28;;;;;;;3.58;1.00;;;;;;;4.07;88.52;99243.75;10257730;28;20057;-78
2024/02/24 20:59:31;;;;;;;2.33;0.88;;;;;;;3.91;87.35;99241.34;10259702;28;20065;-78
2024/02/24 21:04:35;;;;;;;1.85;1.00;;;;;;;4.00;88.07;99245.16;10260391;28;20054;-78
2024/02/24 21:09:39;;;;;;;1.63;1.10;;;;;;;3.98;88.45;99239.09;10251715;28;20105;-78
2024/02/24 21:14:42;;;;;;;2.47;1.20;;;;;;;3.81;87.23;99237.66;10255561;28;22023;-78
2024/02/24 21:19:45;;;;;;;1.50;1.05;;;;;;;3.73;86.41;99240.88;10260483;28;20510;-78
2024/02/24 21:24:49;;;;;;;1.58;1.08;;;;;;;3.89;87.83;99245.91;10257099;28;20054;-79
2024/02/24 21:29:53;;;;;;;2.90;1.05;;;;;;;3.60;86.66;99258.63;10262601;28;20050;-78
2024/02/24 21:34:56;;;;;;;1.58;0.80;;;;;;;3.72;87.31;99265.72;10254780;28;20059;-78
2024/02/24 21:40:00;;;;;;;3.10;1.15;;;;;;;3.61;85.83;99263.81;10251690;28;20043;-78
2024/02/24 21:45:03;;;;;;;4.43;0.90;;;;;;;3.33;85.95;99264.88;10249472;28;20796;-79
2024/02/24 21:50:07;;;;;;;1.33;1.05;;;;;;;3.52;84.86;99263.63;10234234;28;20043;-78
2024/02/24 21:55:12;;;;;;;4.43;1.15;;;;;;;3.62;85.43;99260.22;10238043;28;20047;-78
2024/02/24 22:00:18;;;;;;;1.17;0.90;;;;;;;3.29;84.42;99271.34;10243042;28;20059;-78
2024/02/24 22:05:24;;;;;;;1.95;0.90;;;;;;;3.46;83.75;99268.41;10229865;28;20061;-78
2024/02/24 22:10:29;;;;;;;3.50;1.08;;;;;;;3.45;83.68;99274.63;10247304;28;20055;-78
2024/02/24 22:15:32;;;;;;;5.13;0.98;;;;;;;3.55;82.46;99261.59;10264053;28;20433;-78
2024/02/24 22:20:35;;;;;;;1.55;0.90;;;;;;;3.65;82.04;99272.44;10249673;28;20059;-77
2024/02/24 22:25:40;;;;;;;2.40;0.90;;;;;;;3.31;82.20;99266.78;10232865;28;20039;-77
2024/02/24 22:30:45;;;;;;;4.97;1.08;;;;;;;3.64;81.56;99271.56;10226861;28;20053;-77
2024/02/24 22:35:52;;;;;;;2.30;0.90;;;;;;;3.64;81.99;99276.88;10227725;28;20046;-77
2024/02/24 22:40:58;;;;;;;1.40;0.93;;;;;;;3.70;80.65;99270.28;10227329;28;20049;-77
2024/02/24 22:46:02;;;;;;;1.77;1.08;;;;;;;3.70;81.76;99273.81;10235654;28;20058;-77
2024/02/24 22:51:05;;;;;;;2.03;0.65;;;;;;;3.68;80.06;99261.59;10226684;28;20050;-77
2024/02/24 22:56:09;;;;;;;1.00;0.80;;;;;;;3.65;79.24;99252.03;10221879;28;20051;-77
2024/02/24 23:01:14;;;;;;;1.80;0.70;;;;;;;3.73;80.52;99247.03;10223902;28;20462;-77
2024/02/24 23:06:17;;;;;;;6.00;0.95;;;;;;;3.69;80.58;99242.03;10230962;28;20047;-77
2024/02/24 23:11:22;;;;;;;2.67;1.00;;;;;;;3.73;80.88;99238.22;10228595;28;20085;-77
2024/02/24 23:16:37;;;;;;;2.13;0.68;;;;;;;3.71;79.65;99224.19;10226277;28;20122;-77
2024/02/24 23:21:41;;;;;;;1.13;0.88;;;;;;;3.77;79.09;99221.09;10229350;28;20043;-77
2024/02/24 23:26:45;;;;;;;2.67;1.17;;;;;;;3.70;78.41;99227.78;10220724;28;20051;-77
2024/02/24 23:31:49;;;;;;;1.65;1.42;;;;;;;3.53;77.87;99212.19;10227305;28;21276;-77
2024/02/24 23:36:52;;;;;;;1.63;0.73;;;;;;;3.58;77.13;99218.88;10235753;28;20051;-77
2024/02/24 23:41:56;;;;;;;6.53;0.93;;;;;;;3.64;77.52;99221.09;10228287;28;20792;-77
2024/02/24 23:46:59;;;;;;;1.02;0.90;;;;;;;3.64;76.92;99229.06;10224363;28;20133;-77